Terminal Aerodrome Forecast
Issued by NWS Tampa Bay Area, FL

Home | Current Version | Previous Version | Text Only | Print | Product List | Glossary On
Versions: 1 2 3 4 5 6 7 8 9 10 11 12 13 14 15 16 17 18 19 20 21 22 23 24 25 26 27 28 29 30
000
FTUS42 KTBW 062000 AAA
TAFTPA
TAF AMD
KTPA 062057Z 0621/0718 01010KT P6SM OVC008
     FM070100 01012KT P6SM OVC012
     FM071000 02012KT P6SM BKN025
     FM071400 03010KT P6SM BKN035=

USA.gov is the U.S. government's official web portal to all federal, state and local government web resources and services.